Time;durP1;ratioP1;P1;durP2;ratioP2;P2;SDS_P1;SDS_P2;PMS_P1;PMS_P2;Temp;Humidity;BMP_temperature;BMP_pressure;BME280_temperature;BME280_humidity;BME280_pressure;Samples;Min_cycle;Max_cycle;Signal;HPM_P1;HPM_P2
2020/12/26 00:00:15;;;;;;;0.60;0.50;;;;;;;2.46;89.17;101563.97;4997397;28;20837;-64
2020/12/26 00:02:44;;;;;;;0.40;0.30;;;;;;;2.45;88.76;101562.34;4996978;28;20871;-64
2020/12/26 00:05:17;;;;;;;0.40;0.30;;;;;;;2.49;88.36;101568.91;4997120;28;20471;-64
2020/12/26 00:07:47;;;;;;;0.40;0.30;;;;;;;2.49;88.32;101561.69;4996873;28;20556;-64
2020/12/26 00:10:17;;;;;;;0.93;0.77;;;;;;;2.45;88.34;101565.03;4997228;28;20827;-64
2020/12/26 00:12:44;;;;;;;0.40;0.30;;;;;;;2.41;88.29;101555.81;4996759;28;20535;-63
2020/12/26 00:15:10;;;;;;;1.23;0.83;;;;;;;2.41;88.50;101555.81;4997070;28;20471;-63
2020/12/26 00:17:38;;;;;;;0.43;0.33;;;;;;;2.40;89.07;101559.53;4996958;28;20480;-64
2020/12/26 00:20:05;;;;;;;0.40;0.30;;;;;;;2.42;89.42;101562.78;4996960;28;20451;-64
2020/12/26 00:22:33;;;;;;;0.50;0.50;;;;;;;2.37;88.60;101549.28;4996548;28;20527;-64
2020/12/26 00:25:00;;;;;;;0.40;0.30;;;;;;;2.41;88.59;101553.13;4996442;28;20495;-63
2020/12/26 00:27:26;;;;;;;0.57;0.40;;;;;;;2.47;88.56;101547.69;4996834;28;20961;-64
2020/12/26 00:29:52;;;;;;;0.40;0.30;;;;;;;2.47;88.09;101533.53;4996793;28;20495;-64
2020/12/26 00:32:20;;;;;;;0.40;0.30;;;;;;;2.46;88.02;101543.41;4996714;28;20451;-64
2020/12/26 00:34:47;;;;;;;0.40;0.30;;;;;;;2.41;88.09;101542.44;4996381;28;20502;-64
2020/12/26 00:37:16;;;;;;;0.40;0.30;;;;;;;2.37;88.52;101546.59;4996167;28;20478;-63
2020/12/26 00:39:42;;;;;;;0.50;0.50;;;;;;;2.36;88.42;101543.13;4996571;28;20445;-64
2020/12/26 00:42:08;;;;;;;0.50;0.40;;;;;;;2.34;88.19;101545.19;4996148;28;20519;-64
2020/12/26 00:44:35;;;;;;;0.40;0.30;;;;;;;2.34;88.46;101555.06;4996451;28;20461;-65
2020/12/26 00:47:01;;;;;;;0.40;0.30;;;;;;;2.34;88.09;101563.06;4996590;28;20464;-63
2020/12/26 00:49:27;;;;;;;0.40;0.30;;;;;;;2.32;88.14;101559.81;4996475;28;20813;-63
2020/12/26 00:51:54;;;;;;;0.40;0.20;;;;;;;2.26;87.89;101559.69;4996395;28;20931;-63
2020/12/26 00:54:20;;;;;;;0.40;0.30;;;;;;;2.22;88.41;101544.31;5014160;28;20569;-65
2020/12/26 00:56:46;;;;;;;0.40;0.30;;;;;;;2.22;88.14;101557.66;5015537;28;20447;-64
2020/12/26 00:59:13;;;;;;;1.43;0.50;;;;;;;2.22;88.75;101557.66;5015628;28;20495;-63
2020/12/26 01:01:39;;;;;;;0.40;0.30;;;;;;;2.19;88.38;101555.44;5015699;28;20495;-65
2020/12/26 01:04:05;;;;;;;0.40;0.40;;;;;;;2.20;88.30;101552.53;5015607;28;20458;-64
2020/12/26 01:06:31;;;;;;;0.40;0.30;;;;;;;2.14;88.78;101561.44;5015735;28;20827;-63
2020/12/26 01:08:58;;;;;;;0.40;0.30;;;;;;;2.13;88.54;101557.13;5015751;28;20917;-64
2020/12/26 01:11:25;;;;;;;0.40;0.30;;;;;;;2.11;89.19;101555.72;5015553;28;20478;-65
2020/12/26 01:13:51;;;;;;;0.40;0.30;;;;;;;2.10;88.69;101559.44;5015682;28;20479;-65
2020/12/26 01:16:17;;;;;;;0.40;0.30;;;;;;;2.12;88.52;101563.50;5015571;28;20522;-65
2020/12/26 01:18:43;;;;;;;0.40;0.30;;;;;;;2.10;88.57;101565.59;5015539;28;20522;-64
2020/12/26 01:21:13;;;;;;;0.40;0.30;;;;;;;2.08;89.14;101559.66;5015403;28;20473;-64
2020/12/26 01:23:40;;;;;;;0.40;0.30;;;;;;;2.10;89.41;101564.78;5015620;28;20545;-65
2020/12/26 01:26:07;;;;;;;0.40;0.40;;;;;;;2.14;89.46;101566.78;5014972;28;21047;-63
2020/12/26 01:28:34;;;;;;;0.40;0.30;;;;;;;2.21;88.80;101572.03;5015404;28;20451;-65
2020/12/26 01:31:00;;;;;;;0.57;0.57;;;;;;;2.19;88.38;101574.94;5015290;28;20451;-64
2020/12/26 01:33:26;;;;;;;0.40;0.30;;;;;;;2.18;88.08;101575.19;5015190;28;20443;-61
2020/12/26 01:35:52;;;;;;;0.40;0.30;;;;;;;2.18;87.87;101572.50;5014872;28;20463;-64
2020/12/26 01:38:18;;;;;;;0.40;0.30;;;;;;;2.13;88.42;101581.19;5014855;28;20451;-65
2020/12/26 01:40:48;;;;;;;0.40;0.30;;;;;;;2.13;87.97;101583.03;5015161;28;20862;-63
2020/12/26 01:43:16;;;;;;;0.40;0.30;;;;;;;2.14;88.20;101580.16;5014735;28;20474;-64
2020/12/26 01:45:42;;;;;;;0.40;0.30;;;;;;;2.17;88.09;101582.38;5015209;28;20491;-65
2020/12/26 01:48:13;;;;;;;0.40;0.30;;;;;;;2.14;88.37;101588.16;5014994;28;20442;-63
2020/12/26 01:50:39;;;;;;;0.40;0.30;;;;;;;2.20;88.97;101586.44;5013607;28;20952;-66
2020/12/26 01:53:06;;;;;;;0.40;0.30;;;;;;;2.19;88.86;101590.16;5014834;28;20436;-64
2020/12/26 01:55:32;;;;;;;1.23;0.80;;;;;;;2.19;88.41;101590.16;5014754;28;20491;-65
2020/12/26 01:58:03;;;;;;;0.40;0.30;;;;;;;2.19;88.03;101588.31;5014590;28;20479;-64
2020/12/26 02:00:30;;;;;;;1.70;0.90;;;;;;;2.16;88.71;101591.41;5014699;28;20478;-64
2020/12/26 02:02:56;;;;;;;0.40;0.30;;;;;;;2.20;89.31;101586.44;5014301;28;20502;-64
2020/12/26 02:05:23;;;;;;;0.40;0.30;;;;;;;2.25;88.76;101589.28;5014536;28;20475;-65
2020/12/26 02:07:49;;;;;;;0.40;0.30;;;;;;;2.30;88.20;101586.75;5014424;28;20472;-64
2020/12/26 02:10:16;;;;;;;0.70;0.70;;;;;;;2.27;87.57;101588.03;5014944;28;20442;-64
2020/12/26 02:12:42;;;;;;;0.40;0.30;;;;;;;2.25;87.54;101590.09;5014203;28;20499;-65
2020/12/26 02:15:12;;;;;;;0.40;0.30;;;;;;;2.19;87.14;101588.31;5014347;28;20924;-64
2020/12/26 02:17:39;;;;;;;0.40;0.30;;;;;;;2.16;86.70;101583.41;5014180;28;21042;-64
2020/12/26 02:20:05;;;;;;;0.40;0.30;;;;;;;2.12;86.70;101579.53;5014335;28;20480;-64
2020/12/26 02:22:31;;;;;;;0.40;0.30;;;;;;;2.12;86.96;101568.84;5014370;28;20515;-64
2020/12/26 02:24:58;;;;;;;0.40;0.30;;;;;;;2.12;87.18;101568.03;5013935;28;20500;-64
2020/12/26 02:27:25;;;;;;;0.40;0.30;;;;;;;2.16;86.68;101566.56;5014283;28;20483;-64
2020/12/26 02:29:51;;;;;;;0.40;0.30;;;;;;;2.16;86.93;101562.03;5014240;28;20496;-64
2020/12/26 02:32:17;;;;;;;0.80;0.40;;;;;;;2.14;86.35;101561.44;5014199;28;20487;-66
2020/12/26 02:34:43;;;;;;;0.40;0.30;;;;;;;2.13;86.96;101565.16;5013808;28;20467;-64
2020/12/26 02:37:09;;;;;;;0.40;0.30;;;;;;;2.15;87.14;101562.25;5013751;28;20828;-62
2020/12/26 02:39:36;;;;;;;0.40;0.30;;;;;;;2.13;87.25;101564.34;5013716;28;20476;-65
2020/12/26 02:42:03;;;;;;;0.40;0.30;;;;;;;2.12;86.67;101565.34;5013645;28;21089;-64
2020/12/26 02:44:29;;;;;;;0.40;0.30;;;;;;;2.14;86.45;101576.66;5013610;28;20499;-65
2020/12/26 02:46:55;;;;;;;0.40;0.30;;;;;;;2.16;86.46;101570.03;5014022;28;20440;-63
2020/12/26 02:49:21;;;;;;;0.40;0.20;;;;;;;2.19;85.97;101569.59;5014172;28;20444;-63
2020/12/26 02:51:47;;;;;;;0.40;0.30;;;;;;;2.14;86.19;101565.97;5013571;28;20442;-64
2020/12/26 02:54:14;;;;;;;0.40;0.30;;;;;;;2.15;86.39;101568.41;5013457;28;20996;-64
2020/12/26 02:56:40;;;;;;;0.40;0.30;;;;;;;2.15;86.16;101565.72;5013519;28;20457;-63
2020/12/26 02:59:08;;;;;;;0.40;0.40;;;;;;;2.15;86.36;101571.09;5013836;28;20527;-64
2020/12/26 03:01:35;;;;;;;0.40;0.20;;;;;;;2.13;86.20;101565.16;5013328;28;20484;-65
2020/12/26 03:04:01;;;;;;;0.40;0.30;;;;;;;2.16;86.30;101567.38;5013656;28;20823;-62
2020/12/26 03:06:27;;;;;;;0.40;0.30;;;;;;;2.16;85.69;101564.69;5013679;28;20442;-64
2020/12/26 03:08:53;;;;;;;0.40;0.30;;;;;;;2.13;85.13;101559.81;5013346;28;21111;-64
2020/12/26 03:11:21;;;;;;;0.40;0.30;;;;;;;2.05;85.29;101561.94;5013602;28;20479;-65
2020/12/26 03:13:48;;;;;;;0.40;0.30;;;;;;;2.00;85.67;101560.75;5013389;28;20445;-63
2020/12/26 03:16:15;;;;;;;0.40;0.30;;;;;;;1.95;85.61;101555.25;5013540;28;20487;-64
2020/12/26 03:18:41;;;;;;;0.40;0.30;;;;;;;1.98;85.47;101567.34;5013230;28;20820;-64
2020/12/26 03:21:07;;;;;;;0.40;0.30;;;;;;;1.98;85.80;101564.66;5013421;28;20476;-63
2020/12/26 03:23:33;;;;;;;0.40;0.30;;;;;;;1.96;85.73;101566.75;5013854;28;20478;-62
2020/12/26 03:25:59;;;;;;;0.40;0.30;;;;;;;1.92;85.71;101568.22;5013515;28;20483;-63
2020/12/26 03:28:26;;;;;;;0.50;0.40;;;;;;;1.92;85.54;101571.72;5013129;28;20451;-64
2020/12/26 03:30:52;;;;;;;0.40;0.30;;;;;;;1.93;85.71;101577.88;5013112;28;20819;-64
2020/12/26 03:33:19;;;;;;;0.40;0.30;;;;;;;1.97;86.09;101579.06;5013371;28;20451;-62
2020/12/26 03:35:45;;;;;;;0.40;0.30;;;;;;;1.97;86.35;101584.41;5013349;28;20884;-64
2020/12/26 03:38:11;;;;;;;0.40;0.20;;;;;;;1.97;86.76;101587.91;5013387;28;20447;-64
2020/12/26 03:40:37;;;;;;;0.40;0.30;;;;;;;2.04;86.28;101590.53;5013295;28;20489;-65
2020/12/26 03:43:03;;;;;;;0.40;0.30;;;;;;;2.09;85.45;101601.38;5013238;28;20483;-63
2020/12/26 03:45:29;;;;;;;0.40;0.30;;;;;;;2.08;86.04;101594.41;5013338;28;20482;-64
2020/12/26 03:47:56;;;;;;;0.40;0.30;;;;;;;2.15;86.29;101607.69;5013276;28;20488;-64
2020/12/26 03:50:23;;;;;;;0.60;0.60;;;;;;;2.14;85.22;101606.88;5013234;28;20483;-64
2020/12/26 03:52:49;;;;;;;0.40;0.30;;;;;;;2.10;85.08;101608.34;5013089;28;20478;-64
2020/12/26 03:55:15;;;;;;;0.40;0.30;;;;;;;2.04;84.91;101614.56;5012777;28;20475;-63
2020/12/26 03:57:41;;;;;;;0.40;0.27;;;;;;;2.05;85.65;101607.38;5012915;28;20984;-63
2020/12/26 04:00:07;;;;;;;0.97;0.97;;;;;;;2.04;85.54;101617.25;5013394;28;20864;-62
2020/12/26 04:02:34;;;;;;;0.40;0.20;;;;;;;2.12;84.98;101622.28;5012799;28;21013;-63
2020/12/26 04:05:00;;;;;;;0.40;0.30;;;;;;;2.07;85.14;101613.31;5012771;28;20839;-64
2020/12/26 04:07:27;;;;;;;0.40;0.40;;;;;;;2.06;84.95;101620.50;5013533;28;20446;-62
2020/12/26 04:09:53;;;;;;;0.40;0.30;;;;;;;2.06;84.92;101612.47;5012762;28;20958;-64
2020/12/26 04:12:20;;;;;;;0.40;0.30;;;;;;;2.03;85.26;101618.25;5012785;28;20443;-65
2020/12/26 04:14:46;;;;;;;0.40;0.30;;;;;;;2.09;86.21;101622.75;5016643;28;20460;-64
2020/12/26 04:17:12;;;;;;;0.40;0.30;;;;;;;2.12;85.96;101619.63;5016689;28;20451;-64
2020/12/26 04:19:38;;;;;;;0.40;0.30;;;;;;;2.20;85.76;101616.66;5016287;28;20497;-65
2020/12/26 04:22:04;;;;;;;0.40;0.30;;;;;;;2.23;85.47;101616.25;5016485;28;21004;-65
2020/12/26 04:24:31;;;;;;;0.60;0.30;;;;;;;2.16;84.98;101617.31;5016281;28;20840;-64
2020/12/26 04:26:57;;;;;;;0.60;0.30;;;;;;;2.20;85.10;101619.34;5016484;28;20530;-65
2020/12/26 04:29:23;;;;;;;0.40;0.30;;;;;;;2.18;84.74;101612.59;5016349;28;20968;-63
2020/12/26 04:31:50;;;;;;;0.40;0.30;;;;;;;2.22;84.99;101605.78;5016063;28;20461;-64
2020/12/26 04:34:16;;;;;;;0.60;0.50;;;;;;;2.18;86.94;101607.25;5016327;28;20503;-64
2020/12/26 04:36:42;;;;;;;0.87;0.87;;;;;;;2.17;86.68;101597.56;5026238;22;20541;-63
2020/12/26 04:39:09;;;;;;;0.40;0.30;;;;;;;2.23;84.71;101599.38;5035750;28;20863;-64
2020/12/26 04:41:37;;;;;;;0.40;0.30;;;;;;;2.25;84.71;101606.13;5035984;28;20479;-64
2020/12/26 04:44:03;;;;;;;0.40;0.30;;;;;;;2.24;83.98;101609.84;5035839;28;20454;-63
2020/12/26 04:46:35;;;;;;;0.40;0.20;;;;;;;2.22;84.14;101608.44;5035402;28;20469;-64
2020/12/26 04:49:07;;;;;;;0.40;0.20;;;;;;;2.21;83.92;101602.28;5035965;28;20429;-64
2020/12/26 04:51:35;;;;;;;0.40;0.30;;;;;;;2.18;84.14;101601.91;5035721;28;20444;-64
2020/12/26 04:54:10;;;;;;;0.40;0.30;;;;;;;2.11;84.21;101603.81;5035771;28;20445;-64
2020/12/26 04:56:42;;;;;;;0.70;0.50;;;;;;;2.04;85.00;101590.53;5035569;28;20498;-64
2020/12/26 04:59:09;;;;;;;0.40;0.30;;;;;;;1.95;84.69;101586.50;5036357;28;20451;-64
2020/12/26 05:01:38;;;;;;;0.40;0.20;;;;;;;1.89;84.58;101590.03;5035583;28;20526;-64
2020/12/26 05:04:04;;;;;;;0.40;0.30;;;;;;;1.82;85.84;101591.94;5035794;28;20479;-64
2020/12/26 05:06:31;;;;;;;0.40;0.30;;;;;;;1.83;86.05;101585.56;5035928;28;20570;-64
2020/12/26 05:08:58;;;;;;;0.40;0.30;;;;;;;1.79;86.00;101589.69;5035095;28;20462;-64
2020/12/26 05:11:24;;;;;;;0.40;0.30;;;;;;;1.72;85.93;101587.88;5035541;28;20438;-63
2020/12/26 05:13:51;;;;;;;0.40;0.30;;;;;;;1.61;86.87;101588.59;5035437;28;20442;-64
2020/12/26 05:16:18;;;;;;;0.40;0.30;;;;;;;1.56;87.53;101588.44;5035237;28;20497;-64
2020/12/26 05:18:48;;;;;;;0.40;0.30;;;;;;;1.49;87.45;101588.47;5034665;28;20493;-64
2020/12/26 05:21:25;;;;;;;0.40;0.20;;;;;;;1.43;87.90;101591.19;5035476;28;20441;-64
2020/12/26 05:24:05;;;;;;;0.40;0.30;;;;;;;1.38;88.39;101591.03;5035479;28;20433;-64
2020/12/26 05:26:38;;;;;;;0.40;0.20;;;;;;;1.33;89.25;101578.31;5034899;28;20521;-64
2020/12/26 05:29:05;;;;;;;0.40;0.30;;;;;;;1.31;89.13;101576.88;5035603;28;20434;-64
2020/12/26 05:31:46;;;;;;;0.40;0.30;;;;;;;1.21;89.44;101578.19;5035582;28;20486;-62
2020/12/26 05:34:12;;;;;;;0.40;0.30;;;;;;;1.21;89.44;101580.84;5036293;28;20447;-64
2020/12/26 05:36:39;;;;;;;0.60;0.40;;;;;;;1.18;89.20;101583.94;5034853;28;20992;-66
2020/12/26 05:39:06;;;;;;;0.40;0.30;;;;;;;1.16;89.74;101591.34;5035534;28;20427;-65
2020/12/26 05:41:32;;;;;;;0.40;0.30;;;;;;;1.11;90.10;101582.34;5035117;28;20827;-65
2020/12/26 05:43:59;;;;;;;0.40;0.30;;;;;;;1.10;90.27;101584.19;5034838;28;20516;-65
2020/12/26 05:46:26;;;;;;;0.40;0.30;;;;;;;1.04;90.59;101582.38;5034888;28;20497;-65
2020/12/26 05:48:52;;;;;;;0.40;0.30;;;;;;;1.03;90.40;101569.25;5034537;28;20500;-65
2020/12/26 05:51:24;;;;;;;0.40;0.30;;;;;;;1.00;90.40;101573.97;5034945;28;20540;-65
2020/12/26 05:53:52;;;;;;;15.47;2.63;;;;;;;0.96;90.57;101574.63;5034716;28;20451;-65
2020/12/26 05:56:19;;;;;;;0.40;0.30;;;;;;;0.91;90.81;101577.91;5034695;28;20451;-66
2020/12/26 05:58:45;;;;;;;0.40;0.30;;;;;;;0.83;91.09;101570.16;5034269;28;20466;-65
2020/12/26 06:01:11;;;;;;;0.40;0.30;;;;;;;0.83;90.99;101570.16;5034664;28;20497;-65
2020/12/26 06:03:39;;;;;;;0.40;0.30;;;;;;;0.79;91.22;101568.13;5034588;28;20514;-65
2020/12/26 06:06:06;;;;;;;0.40;0.30;;;;;;;0.83;91.40;101574.69;5034656;28;20540;-65
2020/12/26 06:08:32;;;;;;;0.40;0.30;;;;;;;0.78;91.78;101572.66;5034356;28;20843;-65
2020/12/26 06:11:00;;;;;;;0.40;0.30;;;;;;;0.77;91.93;101567.53;5034482;28;20452;-65
2020/12/26 06:13:28;;;;;;;0.40;0.30;;;;;;;0.77;92.30;101578.19;5034445;28;20881;-65
2020/12/26 06:15:55;;;;;;;0.40;0.30;;;;;;;0.70;92.68;101576.34;5034325;28;20465;-65
2020/12/26 06:18:23;;;;;;;0.40;0.30;;;;;;;0.65;92.91;101572.69;5034228;28;20505;-65
2020/12/26 06:20:52;;;;;;;2.10;0.50;;;;;;;0.65;93.47;101578.84;5034256;28;20501;-65
2020/12/26 06:23:20;;;;;;;0.60;0.60;;;;;;;0.61;93.88;101593.63;5033759;28;20497;-65
2020/12/26 06:25:48;;;;;;;0.50;0.40;;;;;;;0.61;94.81;101606.94;5034268;28;20446;-64
2020/12/26 06:28:25;;;;;;;0.40;0.30;;;;;;;0.65;94.98;101604.69;5034223;28;20498;-64
2020/12/26 06:30:52;;;;;;;0.40;0.30;;;;;;;0.64;95.16;101598.53;5033885;28;20429;-65
2020/12/26 06:33:20;;;;;;;0.50;0.50;;;;;;;0.69;95.52;101595.25;5034294;28;20466;-64
2020/12/26 06:35:46;;;;;;;0.40;0.30;;;;;;;0.75;95.31;101602.38;5033417;28;20435;-64
2020/12/26 06:38:16;;;;;;;0.87;0.70;;;;;;;0.72;95.02;101600.97;5033780;28;20915;-65
2020/12/26 06:40:59;;;;;;;0.40;0.30;;;;;;;0.74;95.20;101603.41;5034577;28;20451;-63
2020/12/26 06:43:49;;;;;;;1.37;0.77;;;;;;;0.74;95.97;101603.41;5035906;28;20467;-63
2020/12/26 06:46:40;;;;;;;0.40;0.40;;;;;;;0.71;96.43;101607.34;5035949;28;20814;-63
2020/12/26 06:49:26;;;;;;;0.67;0.63;;;;;;;0.69;96.70;101596.06;5036416;28;20947;-63
2020/12/26 06:51:53;;;;;;;0.40;0.30;;;;;;;0.74;96.46;101606.91;5035678;28;20538;-63
2020/12/26 06:54:41;;;;;;;0.80;0.80;;;;;;;0.78;96.22;101604.63;5036528;28;20479;-63
2020/12/26 06:57:07;;;;;;;0.40;0.30;;;;;;;0.78;96.36;101607.31;5035076;28;20470;-63
2020/12/26 06:59:35;;;;;;;0.90;0.77;;;;;;;0.64;96.95;101595.06;5034978;28;20545;-63
2020/12/26 07:02:06;;;;;;;0.40;0.30;;;;;;;0.63;97.30;101591.56;5034826;28;20481;-63
2020/12/26 07:04:40;;;;;;;0.40;0.30;;;;;;;0.70;97.97;101603.03;5035523;28;20475;-63
2020/12/26 07:07:07;;;;;;;0.40;0.30;;;;;;;0.74;97.99;101598.91;5035384;28;20459;-64
2020/12/26 07:09:47;;;;;;;0.80;0.50;;;;;;;0.71;98.33;101596.69;5035526;28;20443;-63
2020/12/26 07:12:14;;;;;;;0.40;0.30;;;;;;;0.74;98.80;101596.25;5035389;28;20494;-63
2020/12/26 07:14:42;;;;;;;0.40;0.30;;;;;;;0.75;99.41;101599.72;5035551;28;20474;-63
2020/12/26 07:17:26;;;;;;;1.53;1.43;;;;;;;0.77;99.54;101599.53;5035478;28;20493;-62
2020/12/26 07:19:53;;;;;;;0.40;0.30;;;;;;;0.84;100.00;101593.16;5035368;28;20463;-63
2020/12/26 07:22:22;;;;;;;0.40;0.30;;;;;;;0.91;99.49;101606.44;5035173;28;20522;-63
2020/12/26 07:24:51;;;;;;;4.10;0.80;;;;;;;0.95;99.87;101603.13;5035274;28;20450;-63
2020/12/26 07:27:22;;;;;;;1.70;1.23;;;;;;;1.01;99.50;101593.47;5035189;28;20477;-62
2020/12/26 07:30:07;;;;;;;5.83;0.87;;;;;;;1.03;99.06;101604.75;5034971;28;20912;-62
2020/12/26 07:32:48;;;;;;;0.40;0.30;;;;;;;1.07;99.10;101608.63;5033800;28;20427;-63
2020/12/26 07:35:36;;;;;;;0.40;0.30;;;;;;;1.06;99.11;101611.50;5034021;28;20438;-61
2020/12/26 07:38:08;;;;;;;2.30;1.43;;;;;;;1.06;99.56;101620.31;5035357;28;21000;-62
2020/12/26 07:40:36;;;;;;;0.40;0.30;;;;;;;1.03;98.93;101610.09;5035680;28;20419;-62
2020/12/26 07:43:04;;;;;;;1.13;0.50;;;;;;;1.12;98.98;101611.47;5036233;28;20835;-62
2020/12/26 07:45:32;;;;;;;0.40;0.40;;;;;;;1.14;99.04;101625.41;5036127;28;20808;-62
2020/12/26 07:48:00;;;;;;;0.77;0.77;;;;;;;1.16;98.46;101618.03;5036467;28;20459;-62
2020/12/26 07:50:28;;;;;;;1.00;0.83;;;;;;;1.23;98.58;101628.66;5040111;28;20439;-62
2020/12/26 07:52:55;;;;;;;0.40;0.30;;;;;;;1.24;98.09;101617.78;5040930;28;20465;-62
2020/12/26 07:55:22;;;;;;;0.40;0.30;;;;;;;1.22;98.16;101617.16;5042900;28;20843;-62
2020/12/26 07:57:50;;;;;;;0.40;0.30;;;;;;;1.32;98.42;101626.56;5041019;28;20575;-62
2020/12/26 08:00:24;;;;;;;0.40;0.30;;;;;;;1.33;97.94;101622.84;5039719;28;20450;-62
2020/12/26 08:02:51;;;;;;;1.63;0.80;;;;;;;1.36;98.24;101630.44;5040114;28;20520;-62
2020/12/26 08:05:21;;;;;;;0.40;0.30;;;;;;;1.35;97.52;101626.97;5039976;28;20443;-62
2020/12/26 08:07:48;;;;;;;0.40;0.37;;;;;;;1.40;97.56;101623.66;5040463;28;20224;-63
2020/12/26 08:10:15;;;;;;;0.40;0.30;;;;;;;1.49;97.85;101620.50;5040079;28;20477;-62
2020/12/26 08:13:04;;;;;;;0.40;0.30;;;;;;;1.54;98.10;101619.03;5039637;28;20441;-63
2020/12/26 08:15:31;;;;;;;0.40;0.30;;;;;;;1.62;97.23;101622.28;5035614;28;20946;-62
2020/12/26 08:17:59;;;;;;;0.40;0.30;;;;;;;1.59;96.43;101617.34;5039966;28;20498;-63
2020/12/26 08:20:27;;;;;;;11.73;1.40;;;;;;;1.58;96.38;101618.38;5039945;28;21021;-62
2020/12/26 08:22:54;;;;;;;1.07;0.97;;;;;;;1.61;96.43;101623.31;5039900;28;20532;-63
2020/12/26 08:25:22;;;;;;;0.40;0.30;;;;;;;1.62;95.99;101613.44;5039878;28;20442;-62
2020/12/26 08:27:48;;;;;;;0.47;0.40;;;;;;;1.65;96.61;101616.50;5039501;28;20470;-62
2020/12/26 08:30:18;;;;;;;0.50;0.50;;;;;;;1.65;96.70;101616.50;5039508;28;20442;-62
2020/12/26 08:32:58;;;;;;;0.40;0.30;;;;;;;1.69;96.55;101617.72;5038883;28;20929;-63
2020/12/26 08:35:25;;;;;;;1.37;1.03;;;;;;;1.67;96.61;101613.59;5039685;28;20431;-63
2020/12/26 08:38:00;;;;;;;0.40;0.30;;;;;;;1.68;97.19;101615.25;5039062;28;20977;-63
2020/12/26 08:40:28;;;;;;;0.40;0.30;;;;;;;1.80;96.53;101620.72;5039141;28;20521;-62
2020/12/26 08:42:54;;;;;;;0.70;0.70;;;;;;;1.88;96.12;101621.25;5039297;28;20492;-63
2020/12/26 08:45:30;;;;;;;0.40;0.30;;;;;;;1.95;96.44;101622.03;5039113;28;20974;-62
2020/12/26 08:47:59;;;;;;;0.50;0.40;;;;;;;2.08;96.00;101629.13;5039627;28;20464;-62
2020/12/26 08:50:27;;;;;;;0.40;0.40;;;;;;;2.10;95.52;101623.56;5040770;28;20443;-64
2020/12/26 08:53:04;;;;;;;0.40;0.40;;;;;;;2.19;94.68;101623.06;5040070;28;20448;-65
2020/12/26 08:55:30;;;;;;;0.50;0.40;;;;;;;2.23;94.67;101626.94;5039106;28;20471;-64
2020/12/26 08:57:58;;;;;;;1.40;0.97;;;;;;;2.22;94.38;101625.31;5035440;28;20537;-63
2020/12/26 09:00:25;;;;;;;0.40;0.30;;;;;;;2.25;94.30;101626.69;5036108;28;20936;-65
2020/12/26 09:02:53;;;;;;;1.13;0.70;;;;;;;2.32;94.29;101626.66;5036690;28;20493;-63
2020/12/26 09:05:25;;;;;;;0.40;0.30;;;;;;;2.32;93.38;101632.00;5037046;28;20448;-63
2020/12/26 09:08:02;;;;;;;0.60;0.50;;;;;;;2.41;93.36;101646.72;5036722;28;20531;-63
2020/12/26 09:10:28;;;;;;;0.67;0.67;;;;;;;2.39;93.97;101643.44;5036965;28;20453;-63
2020/12/26 09:13:05;;;;;;;0.50;0.50;;;;;;;2.44;93.93;101638.25;5036930;28;20439;-63
2020/12/26 09:15:51;;;;;;;1.10;0.73;;;;;;;2.45;93.39;101640.72;5036922;28;20482;-63
2020/12/26 09:18:20;;;;;;;4.50;0.90;;;;;;;2.48;92.98;101636.78;5036626;28;20500;-63
2020/12/26 09:20:50;;;;;;;0.87;0.53;;;;;;;2.46;92.47;101634.31;5036786;28;20454;-63
2020/12/26 09:23:17;;;;;;;0.50;0.40;;;;;;;2.45;92.48;101634.53;5037086;28;20481;-63
2020/12/26 09:25:43;;;;;;;0.40;0.30;;;;;;;2.48;92.36;101631.44;5036358;28;20449;-63
2020/12/26 09:28:09;;;;;;;0.40;0.30;;;;;;;2.63;92.15;101628.41;5036619;28;20492;-63
2020/12/26 09:30:36;;;;;;;12.03;1.43;;;;;;;2.65;91.95;101629.78;5036473;28;20440;-62
2020/12/26 09:33:02;;;;;;;0.40;0.30;;;;;;;2.74;91.71;101622.28;5036089;28;20940;-63
2020/12/26 09:35:30;;;;;;;1.40;0.87;;;;;;;2.69;90.56;101625.63;5036174;28;20467;-63
2020/12/26 09:37:57;;;;;;;0.40;0.30;;;;;;;2.77;90.59;101630.69;5036323;28;20521;-63
2020/12/26 09:40:28;;;;;;;0.73;0.73;;;;;;;2.75;89.53;101630.09;5036493;28;20439;-64
2020/12/26 09:42:54;;;;;;;0.40;0.30;;;;;;;2.70;89.09;101632.63;5036133;28;20866;-64
2020/12/26 09:45:21;;;;;;;0.40;0.30;;;;;;;2.65;88.94;101626.31;5018757;28;20501;-64
2020/12/26 09:47:47;;;;;;;1.13;0.83;;;;;;;2.62;89.41;101627.56;5016133;28;20492;-63
2020/12/26 09:50:13;;;;;;;0.60;0.60;;;;;;;2.64;89.64;101630.84;5015854;28;20448;-64
2020/12/26 09:52:42;;;;;;;0.70;0.70;;;;;;;2.60;89.18;101621.63;5017489;28;20493;-64
2020/12/26 09:55:09;;;;;;;0.50;0.40;;;;;;;2.62;89.57;101624.09;5017417;28;20462;-64
2020/12/26 09:57:37;;;;;;;0.87;0.87;;;;;;;2.56;90.21;101622.28;5017070;28;20460;-65
2020/12/26 10:00:04;;;;;;;4.07;1.53;;;;;;;2.62;90.75;101616.88;5017462;28;20444;-64
2020/12/26 10:02:30;;;;;;;1.63;0.50;;;;;;;2.60;90.82;101624.28;5016730;28;20557;-68
2020/12/26 10:04:58;;;;;;;0.53;0.53;;;;;;;2.62;91.38;101611.53;5016409;28;20440;-64
2020/12/26 10:07:24;;;;;;;1.27;0.50;;;;;;;2.65;91.25;101610.25;5015882;28;20478;-66
2020/12/26 10:09:51;;;;;;;0.50;0.40;;;;;;;2.54;91.88;101603.78;5014099;28;20459;-65
2020/12/26 10:12:17;;;;;;;1.13;0.97;;;;;;;2.56;92.68;101601.72;5014227;28;20447;-65
2020/12/26 10:14:43;;;;;;;3.70;1.10;;;;;;;2.64;92.88;101600.59;5014419;28;20870;-65
2020/12/26 10:17:09;;;;;;;6.27;0.97;;;;;;;2.72;92.68;101595.78;5014420;28;20472;-65
2020/12/26 10:19:35;;;;;;;1.57;1.47;;;;;;;2.84;92.45;101597.72;5014513;28;20474;-65
2020/12/26 10:22:02;;;;;;;0.63;0.50;;;;;;;2.91;92.17;101595.75;5013917;28;20957;-64
2020/12/26 10:24:28;;;;;;;1.37;1.13;;;;;;;2.98;92.12;101599.16;5014370;28;20535;-64
2020/12/26 10:26:55;;;;;;;0.40;0.20;;;;;;;3.02;91.81;101595.81;5014215;28;20471;-63
2020/12/26 10:29:21;;;;;;;0.60;0.60;;;;;;;3.03;91.60;101589.41;5014286;28;20472;-62
2020/12/26 10:31:47;;;;;;;1.03;0.83;;;;;;;3.09;91.35;101593.03;5014230;28;20443;-63
2020/12/26 10:34:13;;;;;;;0.43;0.40;;;;;;;3.09;91.29;101595.72;5014151;28;20530;-64
2020/12/26 10:36:43;;;;;;;4.23;0.50;;;;;;;3.14;91.02;101593.19;5024681;28;20502;-64
2020/12/26 10:39:09;;;;;;;0.40;0.30;;;;;;;3.22;91.14;101586.69;5033829;28;20427;-66
2020/12/26 10:41:35;;;;;;;0.73;0.73;;;;;;;3.21;90.72;101590.44;5033474;28;21037;-64
2020/12/26 10:44:02;;;;;;;0.60;0.43;;;;;;;3.20;90.13;101592.28;5033710;28;20505;-64
2020/12/26 10:46:29;;;;;;;0.80;0.50;;;;;;;3.19;90.13;101587.16;5033664;28;20447;-64
2020/12/26 10:48:56;;;;;;;0.40;0.30;;;;;;;3.05;90.81;101589.19;5033959;28;20472;-64
2020/12/26 10:51:22;;;;;;;0.40;0.20;;;;;;;2.90;92.63;101580.75;5033700;28;20481;-64
2020/12/26 10:53:48;;;;;;;0.40;0.30;;;;;;;2.89;93.39;101577.25;5033229;28;20800;-64
2020/12/26 10:56:15;;;;;;;3.00;1.23;;;;;;;2.87;93.85;101581.19;5033490;28;20481;-64
2020/12/26 10:58:41;;;;;;;0.40;0.30;;;;;;;2.85;94.38;101585.97;5033408;28;20444;-64
2020/12/26 11:01:08;;;;;;;1.77;1.67;;;;;;;2.82;95.40;101576.50;5033508;28;20485;-65
2020/12/26 11:03:34;;;;;;;28.97;2.10;;;;;;;2.83;96.04;101586.16;5033459;28;20490;-64
2020/12/26 11:06:00;;;;;;;0.60;0.40;;;;;;;2.86;95.90;101575.03;5033354;28;20447;-64
2020/12/26 11:08:27;;;;;;;0.40;0.30;;;;;;;2.82;95.45;101578.38;5033412;28;20495;-64
2020/12/26 11:10:53;;;;;;;0.40;0.20;;;;;;;2.71;95.31;101562.03;5056063;22;20527;-65
2020/12/26 11:13:19;;;;;;;0.40;0.30;;;;;;;2.70;95.79;101571.13;5016127;28;20499;-64
2020/12/26 11:15:46;;;;;;;0.40;0.40;;;;;;;2.71;95.67;101567.41;5013031;28;20992;-66
2020/12/26 11:18:13;;;;;;;0.40;0.30;;;;;;;2.70;95.14;101563.09;5012605;28;20480;-65
2020/12/26 11:20:39;;;;;;;0.40;0.27;;;;;;;2.61;96.03;101556.41;5012272;28;20481;-65
2020/12/26 11:23:05;;;;;;;0.60;0.47;;;;;;;2.63;96.36;101559.66;5013019;28;20577;-65
2020/12/26 11:25:31;;;;;;;0.40;0.30;;;;;;;2.59;96.34;101550.47;5012994;28;20820;-67
2020/12/26 11:27:57;;;;;;;0.50;0.40;;;;;;;2.56;96.86;101548.22;5018323;28;20448;-67
2020/12/26 11:30:32;;;;;;;0.40;0.30;;;;;;;2.53;97.00;101554.03;5013354;28;20491;-67
2020/12/26 11:32:58;;;;;;;1.27;0.97;;;;;;;2.52;97.01;101547.88;5013163;28;20465;-69
2020/12/26 11:35:25;;;;;;;0.50;0.40;;;;;;;2.50;97.99;101541.91;5013196;28;20487;-67
2020/12/26 11:37:52;;;;;;;0.40;0.30;;;;;;;2.54;98.61;101544.97;5013056;28;20443;-68